Time;durP1;ratioP1;P1;durP2;ratioP2;P2;SDS_P1;SDS_P2;PMS_P1;PMS_P2;Temp;Humidity;BMP_temperature;BMP_pressure;BME280_temperature;BME280_humidity;BME280_pressure;Samples;Min_cycle;Max_cycle;Signal;HPM_P1;HPM_P2
2023/11/02 00:00:54;;;;;;;0.30;0.30;;;10.80;99.90;;;;;;4404601;32;20066;-61
2023/11/02 00:03:30;;;;;;;1.08;0.82;;;10.90;99.90;;;;;;4405731;32;20534;-61
2023/11/02 00:06:05;;;;;;;14.25;2.25;;;10.90;99.90;;;;;;4401293;32;20077;-61
2023/11/02 00:08:33;;;;;;;0.90;0.40;;;11.00;99.90;;;;;;4403640;32;20081;-60
2023/11/02 00:11:03;;;;;;;0.30;0.30;;;11.00;99.90;;;;;;4407318;32;20062;-60
2023/11/02 00:13:29;;;;;;;0.50;0.50;;;11.00;99.90;;;;;;4400042;32;20057;-61
2023/11/02 00:15:56;;;;;;;3.20;1.20;;;11.00;99.90;;;;;;4406587;32;20091;-60
2023/11/02 00:18:22;;;;;;;2.08;0.73;;;11.00;99.90;;;;;;4396619;32;20141;-61
2023/11/02 00:20:49;;;;;;;0.40;0.40;;;11.10;99.90;;;;;;4405256;32;20112;-60
2023/11/02 00:23:35;;;;;;;0.50;0.50;;;11.10;99.90;;;;;;4406646;32;20061;-60
2023/11/02 00:26:01;;;;;;;1.40;0.50;;;11.10;99.90;;;;;;4402373;32;20583;-60
2023/11/02 00:28:26;;;;;;;0.40;0.40;;;11.10;99.90;;;;;;4392389;32;20054;-60
2023/11/02 00:30:52;;;;;;;3.33;0.98;;;11.10;99.90;;;;;;4407949;32;20176;-60
2023/11/02 00:33:19;;;;;;;0.40;0.40;;;11.10;99.90;;;;;;4405803;32;20120;-59
2023/11/02 00:35:46;;;;;;;0.37;0.37;;;11.10;99.90;;;;;;4402056;32;20071;-60
2023/11/02 00:38:28;;;;;;;0.30;0.30;;;11.10;99.90;;;;;;4397498;32;20129;-60
2023/11/02 00:40:55;;;;;;;0.30;0.30;;;11.10;99.90;;;;;;4404215;32;20081;-60
2023/11/02 00:43:22;;;;;;;0.43;0.43;;;11.10;99.90;;;;;;4403457;32;20066;-60
2023/11/02 00:45:49;;;;;;;0.30;0.30;;;11.00;99.90;;;;;;4403902;32;20090;-60
2023/11/02 00:48:21;;;;;;;3.53;1.92;;;11.10;99.90;;;;;;4402558;32;20078;-60
2023/11/02 00:51:11;;;;;;;0.40;0.40;;;11.10;99.90;;;;;;4404900;32;20097;-60
2023/11/02 00:53:41;;;;;;;0.55;0.55;;;11.20;99.90;;;;;;4388141;32;20069;-60
2023/11/02 00:56:08;;;;;;;0.30;0.30;;;11.20;99.90;;;;;;4401144;32;20078;-61
2023/11/02 00:58:34;;;;;;;0.73;0.70;;;11.10;99.90;;;;;;4399708;32;20069;-61
2023/11/02 01:01:17;;;;;;;0.30;0.30;;;11.10;99.90;;;;;;4408103;32;20093;-60
2023/11/02 01:03:48;;;;;;;0.47;0.47;;;11.10;99.90;;;;;;4393704;32;20082;-60
2023/11/02 01:06:18;;;;;;;0.43;0.43;;;11.10;99.90;;;;;;4404599;32;20085;-60
2023/11/02 01:08:43;;;;;;;0.40;0.40;;;11.10;99.90;;;;;;4402918;32;20062;-60
2023/11/02 01:11:09;;;;;;;0.40;0.40;;;11.10;99.90;;;;;;4406252;32;20124;-60
2023/11/02 01:13:35;;;;;;;0.65;0.40;;;11.00;99.90;;;;;;4402629;32;20050;-60
2023/11/02 01:16:10;;;;;;;0.28;0.28;;;11.10;99.90;;;;;;4399675;32;20065;-61
2023/11/02 01:18:39;;;;;;;0.20;0.20;;;11.10;99.90;;;;;;4401927;32;20081;-60
2023/11/02 01:21:06;;;;;;;0.40;0.40;;;11.00;99.90;;;;;;4404943;32;20176;-60
2023/11/02 01:23:34;;;;;;;0.30;0.30;;;10.90;99.90;;;;;;4400644;32;20082;-61
2023/11/02 01:26:01;;;;;;;0.30;0.30;;;11.00;99.90;;;;;;4390799;32;20066;-61
2023/11/02 01:28:49;;;;;;;0.50;0.50;;;10.90;99.90;;;;;;4398579;32;20123;-61
2023/11/02 01:31:17;;;;;;;0.40;0.40;;;10.80;99.90;;;;;;4404854;32;20181;-60
2023/11/02 01:33:54;;;;;;;0.30;0.30;;;10.80;99.90;;;;;;4405861;32;20093;-61
2023/11/02 01:36:28;;;;;;;0.30;0.30;;;10.70;99.90;;;;;;4400987;32;20101;-57
2023/11/02 01:39:01;;;;;;;0.20;0.20;;;10.60;99.90;;;;;;4401496;32;20085;-61
2023/11/02 01:41:41;;;;;;;0.28;0.28;;;10.60;99.90;;;;;;4389505;32;20081;-60
2023/11/02 01:44:46;;;;;;;0.40;0.40;;;10.50;99.90;;;;;;4407318;32;20134;-61
2023/11/02 01:47:36;;;;;;;0.30;0.30;;;10.40;99.90;;;;;;4390374;32;20089;-60
2023/11/02 01:50:10;;;;;;;0.30;0.30;;;10.40;99.90;;;;;;4401615;32;20406;-61
2023/11/02 01:52:48;;;;;;;0.30;0.30;;;10.30;99.90;;;;;;4405312;32;20066;-61
2023/11/02 01:55:22;;;;;;;0.32;0.32;;;10.20;99.90;;;;;;4406253;32;20073;-61
2023/11/02 01:57:59;;;;;;;0.30;0.30;;;10.20;99.90;;;;;;4398359;32;20065;-61
2023/11/02 02:00:46;;;;;;;0.40;0.40;;;10.20;99.90;;;;;;4406844;32;20085;-61
2023/11/02 02:03:27;;;;;;;0.30;0.30;;;10.30;99.90;;;;;;4401789;32;20082;-61
2023/11/02 02:06:02;;;;;;;0.32;0.32;;;10.30;99.90;;;;;;4405241;32;20443;-60
2023/11/02 02:09:07;;;;;;;0.30;0.30;;;10.50;99.90;;;;;;4402253;32;20474;-61
2023/11/02 02:11:47;;;;;;;0.40;0.40;;;10.50;99.90;;;;;;4403190;32;20077;-61
2023/11/02 02:14:25;;;;;;;0.50;0.50;;;10.50;99.90;;;;;;4402201;32;20542;-61
2023/11/02 02:16:57;;;;;;;0.40;0.40;;;10.60;99.90;;;;;;4400327;32;20566;-61
2023/11/02 02:19:55;;;;;;;0.30;0.30;;;10.60;99.90;;;;;;4401965;32;20114;-61
2023/11/02 02:22:28;;;;;;;0.43;0.37;;;10.60;99.90;;;;;;4400917;32;20093;-60
2023/11/02 02:25:12;;;;;;;0.70;0.43;;;10.60;99.90;;;;;;4405457;32;20077;-61
2023/11/02 02:27:58;;;;;;;0.40;0.40;;;10.60;99.90;;;;;;4400981;32;20085;-61
2023/11/02 02:30:47;;;;;;;0.30;0.30;;;10.60;99.90;;;;;;4403397;32;20077;-61
2023/11/02 02:33:37;;;;;;;0.35;0.35;;;10.50;99.90;;;;;;4404469;32;20541;-62
2023/11/02 02:36:24;;;;;;;0.30;0.30;;;10.50;99.90;;;;;;4398721;32;20525;-60
2023/11/02 02:38:56;;;;;;;4.03;1.40;;;10.50;99.90;;;;;;4398018;32;20545;-60
2023/11/02 02:41:24;;;;;;;0.35;0.35;;;10.50;99.90;;;;;;4403445;32;20082;-59
2023/11/02 02:43:52;;;;;;;0.30;0.30;;;10.50;99.90;;;;;;4404022;32;21364;-60
2023/11/02 02:46:22;;;;;;;0.95;0.70;;;10.40;99.90;;;;;;4391976;32;21603;-61
2023/11/02 02:48:48;;;;;;;0.30;0.30;;;10.40;99.90;;;;;;4390284;32;20070;-59
2023/11/02 02:51:15;;;;;;;0.55;0.50;;;10.30;99.90;;;;;;4401526;32;20518;-58
2023/11/02 02:53:43;;;;;;;0.30;0.30;;;10.30;99.90;;;;;;4401299;32;20070;-61
2023/11/02 02:56:12;;;;;;;0.30;0.30;;;10.20;99.90;;;;;;4401388;32;20090;-61
2023/11/02 02:58:44;;;;;;;2.55;1.40;;;10.20;99.90;;;;;;4401061;32;20545;-60
2023/11/02 03:01:14;;;;;;;0.30;0.30;;;10.10;99.90;;;;;;4407952;32;20116;-60
2023/11/02 03:03:42;;;;;;;0.30;0.30;;;10.10;99.90;;;;;;4409302;32;20070;-60
2023/11/02 03:06:08;;;;;;;0.50;0.50;;;10.00;99.90;;;;;;4407618;32;20090;-60
2023/11/02 03:08:37;;;;;;;0.45;0.45;;;10.10;99.90;;;;;;4403115;32;20117;-60
2023/11/02 03:11:04;;;;;;;0.30;0.30;;;10.10;99.90;;;;;;4406077;32;20073;-60
2023/11/02 03:13:31;;;;;;;0.40;0.40;;;10.10;99.90;;;;;;4406975;32;20055;-61
2023/11/02 03:16:02;;;;;;;0.32;0.32;;;9.90;99.90;;;;;;4402293;32;20073;-60
2023/11/02 03:18:32;;;;;;;0.65;0.45;;;9.80;99.90;;;;;;4403211;32;20777;-61
2023/11/02 03:20:57;;;;;;;0.40;0.40;;;9.80;99.90;;;;;;4407187;32;20061;-61
2023/11/02 03:23:37;;;;;;;1.08;1.02;;;9.80;99.90;;;;;;4404600;32;20441;-61
2023/11/02 03:26:27;;;;;;;0.55;0.55;;;9.90;99.90;;;;;;4405869;32;20082;-61
2023/11/02 03:29:04;;;;;;;36.50;0.70;;;10.00;99.90;;;;;;4401475;32;20070;-60
2023/11/02 03:32:02;;;;;;;0.30;0.30;;;10.00;99.90;;;;;;4403443;32;20053;-61
2023/11/02 03:35:00;;;;;;;0.45;0.43;;;10.00;99.90;;;;;;4403940;32;20572;-61
2023/11/02 03:37:38;;;;;;;1.20;0.50;;;10.00;99.90;;;;;;4398308;32;20086;-60
2023/11/02 03:40:19;;;;;;;0.50;0.50;;;9.90;99.90;;;;;;4404093;32;20428;-60
2023/11/02 03:43:08;;;;;;;0.30;0.30;;;9.90;99.90;;;;;;4408161;32;20058;-61
2023/11/02 03:46:02;;;;;;;0.45;0.45;;;9.80;99.90;;;;;;4402987;32;20561;-62
2023/11/02 03:48:45;;;;;;;0.30;0.30;;;9.80;99.90;;;;;;4400512;32;20114;-60
2023/11/02 03:51:26;;;;;;;0.35;0.35;;;9.80;99.90;;;;;;4404607;32;20085;-61
2023/11/02 03:54:11;;;;;;;0.30;0.30;;;9.80;99.90;;;;;;4404334;32;20069;-59
2023/11/02 03:57:02;;;;;;;0.40;0.40;;;9.80;99.90;;;;;;4386763;32;20085;-61
2023/11/02 03:59:53;;;;;;;0.30;0.30;;;9.70;99.90;;;;;;4403380;32;20074;-60
2023/11/02 04:02:28;;;;;;;0.20;0.20;;;9.70;99.90;;;;;;4404037;32;20070;-61
2023/11/02 04:05:10;;;;;;;0.30;0.30;;;9.60;99.90;;;;;;4390471;32;20078;-62
2023/11/02 04:07:45;;;;;;;0.22;0.22;;;9.70;99.90;;;;;;4403514;32;20524;-60
2023/11/02 04:10:12;;;;;;;0.50;0.50;;;9.60;99.90;;;;;;4404626;32;20541;-61
2023/11/02 04:12:50;;;;;;;0.40;0.40;;;9.60;99.90;;;;;;4404548;32;20094;-61
2023/11/02 04:15:15;;;;;;;0.40;0.40;;;9.60;99.90;;;;;;4407710;32;20550;-61
2023/11/02 04:17:41;;;;;;;0.50;0.50;;;9.50;99.90;;;;;;4402055;32;20053;-61
2023/11/02 04:20:07;;;;;;;0.30;0.30;;;9.50;99.90;;;;;;4403579;32;20085;-61
2023/11/02 04:22:32;;;;;;;0.47;0.47;;;9.50;99.90;;;;;;4401907;32;20082;-61
2023/11/02 04:24:58;;;;;;;0.50;0.50;;;9.50;99.90;;;;;;4405120;32;20143;-60
2023/11/02 04:27:23;;;;;;;0.37;0.37;;;9.50;99.90;;;;;;4402313;32;20121;-59
2023/11/02 04:29:49;;;;;;;0.30;0.30;;;9.40;99.90;;;;;;4404775;32;20117;-60
2023/11/02 04:32:15;;;;;;;0.30;0.30;;;9.40;99.90;;;;;;4406332;32;20132;-60
2023/11/02 04:34:40;;;;;;;0.30;0.30;;;9.40;99.90;;;;;;4407435;32;20112;-59
2023/11/02 04:37:14;;;;;;;0.55;0.55;;;9.40;99.90;;;;;;4401034;32;20082;-61
2023/11/02 04:39:42;;;;;;;0.40;0.40;;;9.40;99.90;;;;;;4389704;32;20050;-61
2023/11/02 04:42:07;;;;;;;0.20;0.20;;;9.40;99.90;;;;;;4406751;32;20120;-61
2023/11/02 04:44:33;;;;;;;0.20;0.20;;;9.30;99.90;;;;;;4404201;32;20558;-61
2023/11/02 04:46:59;;;;;;;0.30;0.30;;;9.40;99.90;;;;;;4402242;32;20085;-61
2023/11/02 04:49:24;;;;;;;1.20;1.00;;;9.40;99.90;;;;;;4406807;32;20103;-61
2023/11/02 04:51:55;;;;;;;0.25;0.25;;;9.40;99.90;;;;;;4408325;32;20078;-60
2023/11/02 04:54:26;;;;;;;0.30;0.30;;;9.40;99.90;;;;;;4400923;32;20082;-61
2023/11/02 04:56:51;;;;;;;0.30;0.30;;;9.30;99.90;;;;;;4385831;32;20141;-60
2023/11/02 04:59:17;;;;;;;0.30;0.30;;;9.20;99.90;;;;;;4401969;32;20066;-59
2023/11/02 05:04:08;;;;;;;0.73;0.65;;;9.10;99.90;;;;;;4408622;32;20066;-60
2023/11/02 05:06:33;;;;;;;0.50;0.50;;;9.20;99.90;;;;;;4405190;32;20086;-60
2023/11/02 05:09:02;;;;;;;0.25;0.25;;;9.10;99.90;;;;;;4403402;32;20061;-60
2023/11/02 05:11:28;;;;;;;0.65;0.52;;;9.10;99.90;;;;;;4402607;32;20085;-60
2023/11/02 05:13:53;;;;;;;0.30;0.30;;;9.10;99.90;;;;;;4404840;32;20091;-60
2023/11/02 05:16:19;;;;;;;0.40;0.40;;;9.10;99.90;;;;;;4402668;32;20093;-60
2023/11/02 05:18:44;;;;;;;0.50;0.50;;;9.10;99.90;;;;;;4401153;32;20483;-60
2023/11/02 05:21:10;;;;;;;0.30;0.30;;;9.10;99.90;;;;;;4403905;32;20069;-59
2023/11/02 05:23:35;;;;;;;1.80;0.45;;;9.10;99.90;;;;;;4401681;32;20057;-60
2023/11/02 05:26:04;;;;;;;0.85;0.77;;;9.00;99.90;;;;;;4403932;32;20058;-59
2023/11/02 05:28:31;;;;;;;0.60;0.60;;;9.00;99.90;;;;;;4403557;32;20474;-61
2023/11/02 05:30:57;;;;;;;1.12;0.82;;;9.00;99.90;;;;;;4405818;32;20514;-60
2023/11/02 05:33:22;;;;;;;2.08;0.30;;;9.00;99.90;;;;;;4387086;32;20085;-60
2023/11/02 05:35:49;;;;;;;10.02;1.12;;;9.00;99.90;;;;;;4405921;32;20141;-59
2023/11/02 05:38:15;;;;;;;1.12;0.80;;;9.00;99.90;;;;;;4396892;32;20275;-59
2023/11/02 05:40:43;;;;;;;0.30;0.30;;;9.00;99.90;;;;;;4402397;32;20543;-60
2023/11/02 05:43:08;;;;;;;0.30;0.30;;;9.00;99.90;;;;;;4402642;32;20117;-59
2023/11/02 05:45:34;;;;;;;0.75;0.75;;;9.00;99.90;;;;;;4406807;32;20144;-60
2023/11/02 05:47:59;;;;;;;2.55;0.60;;;9.00;99.90;;;;;;4402368;32;20077;-60
2023/11/02 05:50:26;;;;;;;2.92;0.82;;;8.90;99.90;;;;;;4409971;32;20525;-60
2023/11/02 05:52:52;;;;;;;0.30;0.30;;;8.90;99.90;;;;;;4403377;32;20058;-60
2023/11/02 05:55:17;;;;;;;0.40;0.40;;;8.90;99.90;;;;;;4402165;32;20463;-60
2023/11/02 05:57:43;;;;;;;0.77;0.77;;;8.90;99.90;;;;;;4399011;32;20070;-60
2023/11/02 06:02:35;;;;;;;0.88;0.60;;;8.90;99.90;;;;;;4404424;32;20058;-60
2023/11/02 06:05:01;;;;;;;3.60;1.67;;;8.90;99.90;;;;;;4402611;32;20086;-58
2023/11/02 06:07:26;;;;;;;0.75;0.52;;;8.90;99.90;;;;;;4401973;32;20126;-61
2023/11/02 06:09:52;;;;;;;0.40;0.40;;;8.80;99.90;;;;;;4404605;32;20073;-60
2023/11/02 06:12:17;;;;;;;0.40;0.40;;;8.90;99.90;;;;;;4402587;32;20077;-61
2023/11/02 06:14:43;;;;;;;3.20;0.98;;;8.90;99.90;;;;;;4403601;32;20066;-61
2023/11/02 06:17:09;;;;;;;0.32;0.32;;;8.90;99.90;;;;;;4395879;32;20073;-61
2023/11/02 06:19:35;;;;;;;0.60;0.43;;;8.90;99.90;;;;;;4402835;32;20077;-60
2023/11/02 06:22:00;;;;;;;0.40;0.40;;;8.90;99.90;;;;;;4403791;32;20079;-60
2023/11/02 06:24:26;;;;;;;0.40;0.40;;;9.00;99.90;;;;;;4405105;32;20089;-59
2023/11/02 06:26:51;;;;;;;10.27;2.97;;;9.00;99.90;;;;;;4403566;32;20073;-60
2023/11/02 06:29:17;;;;;;;0.30;0.30;;;9.10;99.90;;;;;;4403255;32;20070;-60
2023/11/02 06:31:42;;;;;;;9.13;0.52;;;9.20;99.90;;;;;;4406910;32;20086;-60
2023/11/02 06:34:08;;;;;;;0.73;0.73;;;9.20;99.90;;;;;;4405008;32;20129;-60
2023/11/02 06:36:33;;;;;;;0.30;0.30;;;9.20;99.90;;;;;;4403605;32;20144;-60
2023/11/02 06:38:59;;;;;;;0.52;0.52;;;9.30;99.90;;;;;;4406001;32;20136;-60
2023/11/02 06:41:25;;;;;;;4.40;1.85;;;9.40;99.90;;;;;;4407316;32;21131;-60
2023/11/02 06:43:50;;;;;;;0.40;0.40;;;9.40;99.90;;;;;;4408147;32;20085;-59
2023/11/02 06:46:16;;;;;;;0.47;0.47;;;9.50;99.90;;;;;;4405046;32;20443;-60
2023/11/02 06:48:41;;;;;;;0.40;0.40;;;9.50;99.90;;;;;;4409323;32;20116;-60
2023/11/02 06:51:08;;;;;;;0.43;0.43;;;9.50;99.90;;;;;;4407882;32;20058;-60
2023/11/02 06:53:33;;;;;;;0.30;0.30;;;9.60;99.90;;;;;;4405886;32;20090;-60
2023/11/02 06:55:59;;;;;;;0.40;0.40;;;9.60;99.90;;;;;;4404769;32;20585;-60
2023/11/02 06:58:24;;;;;;;0.40;0.40;;;9.60;99.90;;;;;;4400762;32;20060;-62
2023/11/02 07:00:50;;;;;;;0.20;0.20;;;9.60;99.90;;;;;;4403824;32;20565;-60
2023/11/02 07:03:15;;;;;;;0.40;0.40;;;9.60;99.90;;;;;;4409954;32;20627;-60
2023/11/02 07:05:41;;;;;;;0.30;0.30;;;9.60;99.90;;;;;;4405910;32;20086;-59
2023/11/02 07:08:07;;;;;;;0.55;0.55;;;9.70;99.90;;;;;;4406750;32;20557;-60
2023/11/02 07:10:32;;;;;;;0.30;0.30;;;9.60;99.90;;;;;;4404839;32;20510;-60
2023/11/02 07:12:58;;;;;;;0.50;0.45;;;9.70;99.90;;;;;;4401046;32;20070;-60
2023/11/02 07:15:23;;;;;;;0.40;0.40;;;9.70;99.90;;;;;;4407274;32;20067;-60
2023/11/02 07:17:49;;;;;;;2.08;0.60;;;9.70;99.90;;;;;;4400900;32;20088;-62
2023/11/02 07:20:15;;;;;;;0.80;0.62;;;9.80;99.90;;;;;;4407830;32;20061;-62
2023/11/02 07:22:41;;;;;;;0.35;0.35;;;9.90;99.90;;;;;;4402821;32;20101;-61
2023/11/02 07:25:07;;;;;;;0.35;0.35;;;9.90;99.90;;;;;;4406536;32;20098;-62
2023/11/02 07:27:33;;;;;;;0.30;0.30;;;9.90;99.90;;;;;;4391915;32;20178;-62
2023/11/02 07:29:59;;;;;;;0.70;0.70;;;10.00;99.90;;;;;;4404025;32;20074;-62
2023/11/02 07:32:25;;;;;;;0.35;0.35;;;10.00;99.90;;;;;;4407123;32;20121;-62
2023/11/02 07:34:51;;;;;;;10.43;0.65;;;10.10;99.90;;;;;;4404686;32;20082;-61
2023/11/02 07:37:16;;;;;;;0.32;0.32;;;10.10;99.90;;;;;;4400375;32;20081;-62
2023/11/02 07:39:43;;;;;;;0.30;0.30;;;10.00;99.90;;;;;;4402477;32;20424;-61
2023/11/02 07:42:08;;;;;;;0.30;0.30;;;10.10;99.90;;;;;;4406304;32;20085;-61
2023/11/02 07:44:35;;;;;;;0.40;0.40;;;10.10;99.90;;;;;;4407368;32;20113;-61
2023/11/02 07:47:00;;;;;;;0.50;0.50;;;10.20;99.90;;;;;;4404697;32;20106;-61
2023/11/02 07:49:26;;;;;;;0.37;0.37;;;10.10;99.90;;;;;;4409198;32;20066;-61
2023/11/02 07:51:51;;;;;;;19.98;0.62;;;10.10;99.90;;;;;;4404774;32;20062;-61
2023/11/02 07:54:16;;;;;;;0.40;0.40;;;10.20;99.90;;;;;;4403452;32;20061;-61
2023/11/02 07:56:44;;;;;;;0.40;0.40;;;10.20;99.90;;;;;;4401351;32;20080;-61
2023/11/02 07:59:10;;;;;;;2.00;0.82;;;10.20;99.90;;;;;;4402137;32;20082;-61
2023/11/02 08:01:35;;;;;;;0.55;0.55;;;10.20;99.90;;;;;;4394927;32;20557;-61
2023/11/02 08:04:02;;;;;;;0.30;0.30;;;10.20;99.90;;;;;;4404692;32;20061;-61
2023/11/02 08:06:27;;;;;;;0.40;0.40;;;10.30;99.90;;;;;;4405692;32;20093;-61
2023/11/02 08:08:53;;;;;;;0.35;0.35;;;10.30;99.90;;;;;;4403506;32;20074;-61
2023/11/02 08:11:18;;;;;;;0.30;0.30;;;10.50;99.90;;;;;;4406423;32;20249;-61
2023/11/02 08:13:44;;;;;;;0.40;0.40;;;10.60;99.90;;;;;;4407320;32;20073;-61
2023/11/02 08:16:09;;;;;;;0.40;0.40;;;10.60;99.90;;;;;;4403432;32;20062;-59
2023/11/02 08:18:35;;;;;;;0.40;0.40;;;10.60;99.90;;;;;;4399434;32;20059;-61
2023/11/02 08:21:08;;;;;;;0.30;0.30;;;10.70;99.90;;;;;;4406117;32;20142;-61
2023/11/02 08:23:33;;;;;;;0.30;0.30;;;10.70;99.90;;;;;;4406120;32;20086;-61
2023/11/02 08:25:59;;;;;;;0.40;0.40;;;10.80;99.90;;;;;;4405881;32;20073;-61
2023/11/02 08:28:24;;;;;;;0.40;0.40;;;11.00;99.90;;;;;;4401536;32;20142;-62
2023/11/02 08:30:50;;;;;;;0.37;0.37;;;11.10;99.90;;;;;;4404052;32;20095;-62
2023/11/02 08:33:15;;;;;;;0.40;0.40;;;11.10;99.90;;;;;;4405127;32;20418;-61
2023/11/02 08:35:41;;;;;;;0.30;0.30;;;11.20;99.90;;;;;;4400855;32;20086;-65
2023/11/02 08:38:06;;;;;;;0.60;0.60;;;11.10;99.90;;;;;;4382214;32;20833;-63
2023/11/02 08:40:32;;;;;;;0.52;0.52;;;11.20;99.90;;;;;;4405340;32;20549;-61
2023/11/02 08:42:58;;;;;;;0.50;0.50;;;11.20;99.90;;;;;;4405863;32;20077;-62
2023/11/02 08:45:24;;;;;;;0.30;0.30;;;11.20;99.90;;;;;;4406109;32;20451;-62
2023/11/02 08:47:49;;;;;;;0.30;0.30;;;11.20;99.90;;;;;;4388626;32;20075;-62
2023/11/02 08:50:14;;;;;;;5.35;2.37;;;11.20;99.90;;;;;;4404837;32;20083;-61
2023/11/02 08:52:40;;;;;;;0.47;0.47;;;11.20;99.90;;;;;;4404983;32;20562;-61
2023/11/02 08:55:07;;;;;;;0.85;0.68;;;11.30;99.90;;;;;;4403809;32;20069;-60
2023/11/02 08:57:32;;;;;;;0.40;0.40;;;11.30;99.90;;;;;;4399176;32;20372;-61
2023/11/02 08:59:58;;;;;;;0.40;0.40;;;11.30;99.90;;;;;;4400740;32;20589;-61
2023/11/02 09:02:25;;;;;;;0.50;0.50;;;11.40;99.90;;;;;;4405924;32;20065;-61
2023/11/02 09:04:51;;;;;;;0.40;0.40;;;11.40;99.90;;;;;;4406603;32;20763;-61
2023/11/02 09:07:16;;;;;;;1.35;0.70;;;11.40;99.90;;;;;;4400375;32;20070;-61
2023/11/02 09:09:41;;;;;;;0.30;0.30;;;11.50;99.90;;;;;;4404904;32;20093;-62
2023/11/02 09:12:07;;;;;;;0.65;0.65;;;11.50;99.90;;;;;;4404428;32;20065;-61
2023/11/02 09:14:32;;;;;;;0.55;0.55;;;11.50;99.90;;;;;;4405813;32;20066;-62
2023/11/02 09:16:58;;;;;;;0.40;0.40;;;11.50;99.90;;;;;;4400181;32;20199;-62
2023/11/02 09:19:23;;;;;;;0.30;0.30;;;11.50;99.90;;;;;;4404716;32;20066;-61
2023/11/02 09:21:49;;;;;;;0.50;0.50;;;11.50;99.90;;;;;;4405073;32;20069;-60
2023/11/02 09:24:14;;;;;;;0.65;0.65;;;11.60;99.90;;;;;;4406091;32;20094;-60
2023/11/02 09:26:41;;;;;;;0.50;0.50;;;11.60;99.90;;;;;;4400330;32;20065;-60
2023/11/02 09:29:07;;;;;;;0.60;0.60;;;11.60;99.90;;;;;;4405095;32;20495;-61
2023/11/02 09:31:33;;;;;;;0.70;0.70;;;11.70;99.90;;;;;;4405675;32;20082;-63
2023/11/02 09:34:00;;;;;;;0.40;0.40;;;11.70;99.90;;;;;;4403208;32;20572;-61
2023/11/02 09:36:26;;;;;;;0.30;0.30;;;11.70;99.90;;;;;;4402413;32;20078;-61
2023/11/02 09:38:52;;;;;;;1.17;0.65;;;11.80;99.90;;;;;;4399788;32;20081;-61
2023/11/02 09:41:17;;;;;;;3.20;0.52;;;11.90;99.90;;;;;;4404647;32;20426;-60
2023/11/02 09:43:44;;;;;;;0.73;0.73;;;11.90;99.90;;;;;;4403041;32;20096;-62
2023/11/02 09:46:12;;;;;;;0.30;0.30;;;12.00;99.90;;;;;;4403536;32;20073;-61
2023/11/02 09:48:38;;;;;;;0.57;0.40;;;12.10;99.90;;;;;;4401931;32;20082;-61
2023/11/02 09:51:05;;;;;;;0.40;0.40;;;12.10;99.90;;;;;;4403419;32;20420;-61
2023/11/02 09:53:30;;;;;;;0.50;0.50;;;12.20;99.90;;;;;;4400519;32;20128;-62
2023/11/02 09:55:56;;;;;;;0.40;0.40;;;12.20;99.90;;;;;;4405066;32;20121;-62
2023/11/02 09:58:23;;;;;;;0.52;0.50;;;12.20;99.90;;;;;;4397473;32;20081;-61
2023/11/02 10:00:50;;;;;;;0.40;0.40;;;12.20;99.90;;;;;;4403497;32;20073;-62
2023/11/02 10:03:17;;;;;;;0.70;0.70;;;12.30;99.90;;;;;;4389100;32;20545;-60
2023/11/02 10:05:44;;;;;;;0.30;0.30;;;12.30;99.90;;;;;;4406468;32;20912;-61
2023/11/02 10:08:09;;;;;;;1.02;0.68;;;12.30;99.90;;;;;;4403362;32;20125;-61
2023/11/02 10:10:35;;;;;;;0.47;0.40;;;12.40;99.90;;;;;;4403978;32;20082;-61
2023/11/02 10:13:01;;;;;;;0.37;0.37;;;12.50;99.90;;;;;;4401502;32;20470;-62
2023/11/02 10:15:28;;;;;;;0.50;0.50;;;12.50;99.90;;;;;;4399797;32;20086;-61
2023/11/02 10:17:54;;;;;;;0.40;0.40;;;12.60;99.90;;;;;;4384981;32;20534;-60
2023/11/02 10:20:19;;;;;;;0.40;0.40;;;12.60;99.90;;;;;;4403116;32;20265;-62
2023/11/02 10:22:57;;;;;;;0.40;0.40;;;12.60;99.90;;;;;;4402814;32;20580;-62
2023/11/02 10:25:23;;;;;;;0.28;0.28;;;12.70;99.90;;;;;;4401632;32;20085;-60
2023/11/02 10:27:50;;;;;;;0.30;0.30;;;12.80;99.90;;;;;;4403903;32;20093;-61
2023/11/02 10:30:17;;;;;;;0.30;0.30;;;12.90;99.90;;;;;;4403876;32;20069;-61
2023/11/02 10:32:42;;;;;;;0.68;0.65;;;12.90;99.90;;;;;;4403960;32;20077;-61
2023/11/02 10:35:09;;;;;;;0.82;0.82;;;12.90;99.90;;;;;;4404172;32;20517;-62
2023/11/02 10:37:36;;;;;;;0.30;0.30;;;12.90;99.90;;;;;;4396539;32;20137;-61
2023/11/02 10:40:02;;;;;;;0.50;0.50;;;12.90;99.90;;;;;;4400207;32;20117;-60
2023/11/02 10:42:29;;;;;;;0.55;0.55;;;12.90;99.90;;;;;;4404696;32;20124;-61
2023/11/02 10:44:56;;;;;;;0.40;0.40;;;12.90;99.90;;;;;;4406966;32;20062;-62
2023/11/02 10:47:29;;;;;;;0.50;0.50;;;12.80;99.90;;;;;;4399852;32;20073;-61
2023/11/02 10:49:58;;;;;;;0.40;0.40;;;12.80;99.90;;;;;;4406050;32;20058;-60
2023/11/02 10:52:33;;;;;;;0.40;0.40;;;12.80;99.90;;;;;;4390072;32;20089;-61
2023/11/02 10:55:25;;;;;;;0.50;0.50;;;12.80;99.90;;;;;;4402253;32;20066;-61
2023/11/02 10:57:51;;;;;;;2.28;0.65;;;12.80;99.90;;;;;;4385463;32;20586;-60
2023/11/02 11:00:17;;;;;;;0.55;0.55;;;12.80;99.90;;;;;;4401941;32;20082;-60
2023/11/02 11:02:47;;;;;;;1.27;0.43;;;12.90;99.90;;;;;;4400950;32;20526;-61
2023/11/02 11:05:15;;;;;;;1.27;0.85;;;12.90;99.90;;;;;;4402475;32;20074;-61
2023/11/02 11:07:42;;;;;;;0.75;0.60;;;12.80;99.90;;;;;;4400241;32;20066;-61
2023/11/02 11:10:12;;;;;;;0.40;0.40;;;12.90;99.90;;;;;;4392020;32;20109;-61
2023/11/02 11:12:39;;;;;;;0.60;0.60;;;12.90;99.90;;;;;;4403850;32;20077;-61
2023/11/02 11:15:07;;;;;;;0.40;0.40;;;12.90;99.90;;;;;;4405773;32;20124;-60
2023/11/02 11:17:33;;;;;;;20.48;2.75;;;12.90;99.90;;;;;;4398511;32;20085;-61
2023/11/02 11:19:58;;;;;;;0.55;0.55;;;13.00;99.90;;;;;;4400795;32;20137;-60
2023/11/02 11:22:27;;;;;;;0.40;0.40;;;13.00;99.90;;;;;;4404408;32;20595;-61
2023/11/02 11:24:55;;;;;;;0.40;0.40;;;13.00;99.90;;;;;;4404581;32;20074;-61
2023/11/02 11:27:31;;;;;;;0.40;0.40;;;13.10;99.90;;;;;;4401845;32;20087;-61
2023/11/02 11:29:57;;;;;;;0.40;0.40;;;13.00;99.90;;;;;;4402672;32;20145;-61
2023/11/02 11:32:26;;;;;;;0.40;0.40;;;13.00;99.90;;;;;;4405054;32;20096;-60
2023/11/02 11:34:58;;;;;;;0.43;0.43;;;13.00;99.90;;;;;;4406021;32;20462;-61
2023/11/02 11:37:46;;;;;;;0.40;0.40;;;13.10;99.90;;;;;;4400201;32;20062;-61
2023/11/02 11:40:20;;;;;;;0.43;0.43;;;13.10;99.90;;;;;;4402618;32;20128;-61
2023/11/02 11:43:01;;;;;;;0.65;0.65;;;13.20;99.90;;;;;;4406882;32;20061;-61
2023/11/02 11:45:32;;;;;;;;;;;13.20;99.90;;;;;;4407124;32;20139;-61
2023/11/02 11:47:59;;;;;;;0.45;0.45;;;13.30;99.90;;;;;;4403680;32;20431;-61
2023/11/02 11:50:32;;;;;;;0.62;0.62;;;13.30;99.90;;;;;;4388363;32;87706;-61
2023/11/02 11:53:17;;;;;;;0.50;0.50;;;13.40;99.90;;;;;;4403953;32;20307;-61
2023/11/02 11:55:44;;;;;;;0.47;0.47;;;13.60;99.90;;;;;;4402724;32;20097;-60
2023/11/02 11:58:10;;;;;;;0.30;0.30;;;13.50;99.90;;;;;;4396226;32;20102;-61
2023/11/02 12:00:57;;;;;;;0.50;0.50;;;13.60;99.90;;;;;;4406029;32;20077;-60
2023/11/02 12:03:40;;;;;;;4.75;0.50;;;13.60;99.90;;;;;;4396318;32;20070;-60
2023/11/02 12:06:10;;;;;;;1.75;1.10;;;13.60;99.90;;;;;;4407439;32;20098;-61
2023/11/02 12:08:44;;;;;;;0.45;0.45;;;13.60;99.90;;;;;;4403496;32;20098;-61
2023/11/02 12:11:13;;;;;;;0.30;0.30;;;13.50;99.90;;;;;;4405098;32;20525;-60
2023/11/02 12:13:49;;;;;;;0.40;0.40;;;13.50;99.90;;;;;;4405246;32;20573;-60
2023/11/02 12:16:15;;;;;;;0.60;0.60;;;13.40;99.90;;;;;;4391221;32;20549;-60
2023/11/02 12:18:42;;;;;;;0.60;0.60;;;13.50;99.90;;;;;;4400463;32;20152;-61
2023/11/02 12:21:15;;;;;;;0.43;0.43;;;13.40;99.90;;;;;;4404387;32;20138;-60
2023/11/02 12:23:41;;;;;;;0.40;0.40;;;13.40;99.90;;;;;;4404857;32;20081;-60
2023/11/02 12:26:08;;;;;;;0.40;0.40;;;13.40;99.90;;;;;;4403067;32;20483;-61
2023/11/02 12:28:44;;;;;;;0.40;0.40;;;13.40;99.90;;;;;;4400740;32;20528;-62
2023/11/02 12:31:10;;;;;;;1.52;0.75;;;13.40;99.90;;;;;;4401783;32;20560;-61
2023/11/02 12:33:36;;;;;;;0.40;0.40;;;13.30;99.90;;;;;;4404661;32;20073;-60
2023/11/02 12:36:03;;;;;;;0.55;0.55;;;13.40;99.90;;;;;;4401101;32;20054;-61
2023/11/02 12:38:43;;;;;;;0.32;0.32;;;13.30;99.90;;;;;;4396002;32;20117;-60
2023/11/02 12:41:10;;;;;;;0.40;0.40;;;13.30;99.90;;;;;;4403262;32;20521;-61
2023/11/02 12:43:39;;;;;;;0.68;0.43;;;13.30;99.90;;;;;;4401667;32;20077;-60
2023/11/02 12:46:08;;;;;;;0.30;0.30;;;13.30;99.90;;;;;;4401162;32;20408;-60
2023/11/02 12:48:36;;;;;;;0.32;0.32;;;13.30;99.90;;;;;;4400478;32;20655;-61
2023/11/02 12:51:20;;;;;;;0.30;0.30;;;13.30;99.90;;;;;;4388473;32;20094;-60
2023/11/02 12:53:48;;;;;;;7.43;0.60;;;13.40;99.90;;;;;;4406909;32;20098;-60
2023/11/02 12:56:19;;;;;;;0.40;0.40;;;13.40;99.90;;;;;;4401035;32;20081;-61
2023/11/02 12:58:45;;;;;;;0.62;0.62;;;13.40;99.90;;;;;;4400693;32;20148;-60
2023/11/02 13:01:11;;;;;;;0.40;0.40;;;13.40;99.90;;;;;;4403726;32;20576;-61
2023/11/02 13:03:36;;;;;;;1.45;0.40;;;13.40;99.90;;;;;;4404556;32;20081;-61
2023/11/02 13:06:03;;;;;;;0.30;0.30;;;13.40;99.90;;;;;;4406992;32;20146;-60
2023/11/02 13:08:29;;;;;;;1.40;1.10;;;13.40;99.90;;;;;;4402633;32;20070;-60